Time;durP1;ratioP1;P1;durP2;ratioP2;P2;SDS_P1;SDS_P2;PMS_P1;PMS_P2;Temp;Humidity;BMP_temperature;BMP_pressure;BME280_temperature;BME280_humidity;BME280_pressure;Samples;Min_cycle;Max_cycle;Signal;HPM_P1;HPM_P2
2021/11/15 00:00:34;;;;;;;30.30;12.50;;;9.30;90.60;;;;;;5092813;28;20425;-77
2021/11/15 00:03:01;;;;;;;29.30;13.40;;;9.40;90.40;;;;;;5091241;28;20183;-76
2021/11/15 00:05:27;;;;;;;28.80;14.60;;;9.30;90.60;;;;;;5094571;28;20475;-77
2021/11/15 00:07:53;;;;;;;32.77;14.43;;;9.30;90.60;;;;;;5092830;28;20461;-77
2021/11/15 00:10:19;;;;;;;28.07;12.30;;;9.30;90.70;;;;;;5091800;28;20440;-75
2021/11/15 00:12:52;;;;;;;31.47;13.80;;;9.30;90.80;;;;;;5100161;28;20187;-76
2021/11/15 00:15:20;;;;;;;28.43;13.23;;;9.30;90.80;;;;;;5100046;28;20524;-77
2021/11/15 00:17:46;;;;;;;27.90;12.70;;;9.30;90.80;;;;;;5092972;28;20550;-77
2021/11/15 00:20:13;;;;;;;27.00;12.90;;;9.30;90.70;;;;;;5093347;28;20421;-77
2021/11/15 00:22:38;;;;;;;27.37;12.10;;;9.40;90.80;;;;;;5093036;28;20425;-76
2021/11/15 00:25:05;;;;;;;33.87;13.40;;;9.50;90.70;;;;;;5091098;28;20980;-76
2021/11/15 00:27:32;;;;;;;26.97;11.57;;;9.50;90.60;;;;;;5083595;28;20700;-75
2021/11/15 00:30:00;;;;;;;25.27;11.50;;;9.50;90.40;;;;;;5093037;28;20409;-75
2021/11/15 00:32:29;;;;;;;25.63;13.07;;;9.50;90.40;;;;;;5098384;28;20466;-77
2021/11/15 00:34:55;;;;;;;31.93;13.43;;;9.50;90.30;;;;;;5101538;28;20443;-77
2021/11/15 00:37:22;;;;;;;25.77;11.30;;;9.40;90.20;;;;;;5095140;28;20471;-74
2021/11/15 00:39:49;;;;;;;25.90;11.13;;;9.40;90.40;;;;;;5093191;28;20428;-76
2021/11/15 00:42:15;;;;;;;26.00;12.00;;;9.40;90.60;;;;;;5092465;28;20445;-78
2021/11/15 00:44:41;;;;;;;27.43;11.57;;;9.40;90.50;;;;;;5092775;28;20958;-76
2021/11/15 00:47:07;;;;;;;19.83;10.80;;;9.40;90.40;;;;;;5092302;28;21206;-77
2021/11/15 00:49:33;;;;;;;25.20;10.10;;;9.40;90.30;;;;;;5093456;28;20425;-76
2021/11/15 00:51:59;;;;;;;23.20;11.63;;;9.40;90.40;;;;;;5092270;28;20433;-77
2021/11/15 00:54:25;;;;;;;27.03;11.67;;;9.30;90.30;;;;;;5091411;28;20413;-75
2021/11/15 00:56:51;;;;;;;23.73;10.70;;;9.30;90.40;;;;;;5090495;28;20467;-76
2021/11/15 00:59:17;;;;;;;30.10;11.37;;;9.40;90.40;;;;;;5093994;28;20217;-77
2021/11/15 01:01:43;;;;;;;25.40;11.47;;;9.40;90.30;;;;;;5095460;28;20199;-77
2021/11/15 01:04:09;;;;;;;26.80;12.60;;;9.30;90.30;;;;;;5096422;28;20198;-76
2021/11/15 01:06:35;;;;;;;25.93;10.93;;;9.30;90.40;;;;;;5101113;28;20579;-76
2021/11/15 01:09:01;;;;;;;30.17;13.40;;;9.30;90.40;;;;;;5102590;28;20416;-77
2021/11/15 01:11:27;;;;;;;27.10;10.67;;;9.30;90.40;;;;;;5103858;28;20209;-76
2021/11/15 01:13:53;;;;;;;28.63;11.97;;;9.30;90.40;;;;;;5093187;28;20417;-77
2021/11/15 01:16:19;;;;;;;27.70;10.57;;;9.30;90.20;;;;;;5097450;28;21085;-76
2021/11/15 01:18:45;;;;;;;24.80;10.77;;;9.30;90.10;;;;;;5107790;28;20194;-77
2021/11/15 01:21:12;;;;;;;23.33;10.13;;;9.30;89.90;;;;;;5105363;28;20429;-75
2021/11/15 01:23:39;;;;;;;20.30;10.40;;;9.30;90.00;;;;;;5092456;28;20187;-77
2021/11/15 01:26:06;;;;;;;26.37;11.13;;;9.30;89.90;;;;;;5091211;28;20519;-76
2021/11/15 01:28:32;;;;;;;22.50;9.87;;;9.30;89.90;;;;;;5090031;28;21015;-76
2021/11/15 01:30:58;;;;;;;26.67;11.50;;;9.30;89.70;;;;;;5091723;28;20456;-77
2021/11/15 01:33:24;;;;;;;21.23;10.03;;;9.30;89.30;;;;;;5090888;28;20425;-76
2021/11/15 01:35:50;;;;;;;19.23;9.93;;;9.30;89.60;;;;;;5090982;28;20437;-76
2021/11/15 01:38:16;;;;;;;21.50;9.50;;;9.30;89.70;;;;;;5091096;28;20222;-76
2021/11/15 01:40:41;;;;;;;21.97;9.70;;;9.30;89.60;;;;;;5091517;28;20207;-77
2021/11/15 01:43:07;;;;;;;22.77;10.23;;;9.30;89.20;;;;;;5090555;28;20191;-76
2021/11/15 01:45:37;;;;;;;25.13;10.87;;;9.20;89.20;;;;;;5089197;28;20273;-76
2021/11/15 01:48:05;;;;;;;19.67;10.10;;;9.10;89.00;;;;;;5096295;28;20445;-76
2021/11/15 01:50:32;;;;;;;26.80;11.10;;;9.10;89.50;;;;;;5083091;28;20457;-76
2021/11/15 01:52:59;;;;;;;22.27;11.17;;;9.20;89.50;;;;;;5089864;28;20429;-76
2021/11/15 01:55:26;;;;;;;25.00;9.90;;;9.20;89.00;;;;;;5090068;28;20420;-77
2021/11/15 01:57:53;;;;;;;21.47;11.03;;;9.20;88.70;;;;;;5090861;28;20506;-76
2021/11/15 02:00:25;;;;;;;23.10;10.70;;;9.20;88.70;;;;;;5089703;28;20525;-77
2021/11/15 02:02:50;;;;;;;16.60;8.40;;;9.20;88.30;;;;;;5090873;28;20915;-76
2021/11/15 02:05:17;;;;;;;20.43;8.80;;;9.20;88.10;;;;;;5090117;28;20559;-76
2021/11/15 02:07:42;;;;;;;17.60;9.00;;;9.10;87.80;;;;;;5090856;28;20261;-77
2021/11/15 02:10:10;;;;;;;17.30;8.47;;;9.00;87.80;;;;;;5090260;28;20457;-76
2021/11/15 02:12:36;;;;;;;17.60;8.50;;;9.00;87.80;;;;;;5089533;28;20183;-77
2021/11/15 02:15:06;;;;;;;18.73;9.53;;;9.00;87.70;;;;;;5086228;28;20590;-76
2021/11/15 02:17:32;;;;;;;16.60;8.20;;;9.10;87.70;;;;;;5089879;28;20437;-75
2021/11/15 02:20:04;;;;;;;18.10;8.00;;;9.10;87.60;;;;;;5090155;28;20425;-77
2021/11/15 02:22:29;;;;;;;20.53;9.40;;;9.10;87.60;;;;;;5090309;28;20445;-77
2021/11/15 02:24:55;;;;;;;17.60;8.50;;;9.10;87.60;;;;;;5089504;28;20453;-76
2021/11/15 02:27:21;;;;;;;23.50;9.60;;;9.00;87.30;;;;;;5090127;28;20199;-76
2021/11/15 02:29:47;;;;;;;20.43;8.80;;;8.90;87.70;;;;;;5089851;28;20183;-76
2021/11/15 02:32:13;;;;;;;16.20;8.20;;;8.90;88.00;;;;;;5090254;28;20182;-77
2021/11/15 02:34:38;;;;;;;23.57;9.30;;;8.90;88.00;;;;;;5089791;28;20474;-78
2021/11/15 02:37:04;;;;;;;19.13;8.30;;;8.90;87.80;;;;;;5092489;28;20286;-76
2021/11/15 02:39:30;;;;;;;15.70;8.57;;;9.00;87.70;;;;;;5088541;28;20199;-77
2021/11/15 02:41:56;;;;;;;15.93;8.40;;;8.90;87.70;;;;;;5090419;28;20657;-76
2021/11/15 02:44:26;;;;;;;20.63;9.17;;;9.00;87.60;;;;;;5121491;27;20907;-76
2021/11/15 02:46:52;;;;;;;19.30;9.57;;;9.00;87.30;;;;;;5094980;28;20224;-76
2021/11/15 02:49:18;;;;;;;19.70;8.17;;;9.00;87.30;;;;;;5091451;28;20798;-76
2021/11/15 02:51:44;;;;;;;16.60;8.00;;;8.90;87.40;;;;;;5090294;28;20183;-76
2021/11/15 02:54:09;;;;;;;18.93;8.73;;;8.90;87.70;;;;;;5089229;28;20778;-76
2021/11/15 02:56:39;;;;;;;15.70;8.37;;;8.90;87.70;;;;;;5088255;28;20207;-76
2021/11/15 02:59:05;;;;;;;17.27;8.87;;;8.90;87.70;;;;;;5090330;28;20179;-76
2021/11/15 03:01:31;;;;;;;16.97;7.83;;;8.80;87.60;;;;;;5090098;28;20429;-76
2021/11/15 03:03:57;;;;;;;21.77;8.87;;;8.80;87.70;;;;;;5090315;28;20429;-75
2021/11/15 03:06:23;;;;;;;19.97;9.33;;;8.80;87.70;;;;;;5090568;28;20555;-76
2021/11/15 03:08:49;;;;;;;16.50;8.07;;;8.80;87.70;;;;;;5091537;28;20187;-77
2021/11/15 03:11:16;;;;;;;18.10;8.83;;;8.90;87.40;;;;;;5090280;28;20178;-77
2021/11/15 03:13:45;;;;;;;18.13;9.13;;;8.90;87.40;;;;;;5089117;28;20425;-76
2021/11/15 03:16:11;;;;;;;19.60;9.63;;;8.90;87.40;;;;;;5094288;28;20424;-77
2021/11/15 03:18:39;;;;;;;22.73;8.43;;;8.90;87.30;;;;;;5098688;28;20457;-76
2021/11/15 03:21:07;;;;;;;17.67;9.23;;;8.80;87.40;;;;;;5089170;28;20482;-76
2021/11/15 03:23:35;;;;;;;21.03;9.27;;;8.80;87.40;;;;;;5088355;28;20496;-76
2021/11/15 03:26:01;;;;;;;21.07;9.27;;;8.80;87.40;;;;;;5089615;28;20922;-77
2021/11/15 03:28:31;;;;;;;18.00;8.60;;;8.80;87.60;;;;;;5090120;28;20413;-76
2021/11/15 03:31:02;;;;;;;18.90;10.23;;;8.80;87.70;;;;;;5090527;28;20429;-76
2021/11/15 03:33:29;;;;;;;24.27;10.83;;;8.90;87.70;;;;;;5087887;28;20449;-75
2021/11/15 03:35:55;;;;;;;21.43;9.53;;;8.80;88.10;;;;;;5089750;28;21203;-76
2021/11/15 03:38:21;;;;;;;21.20;10.73;;;8.90;88.40;;;;;;5088514;28;20490;-77
2021/11/15 03:40:47;;;;;;;26.70;11.70;;;8.90;88.60;;;;;;5089138;28;20214;-76
2021/11/15 03:43:13;;;;;;;27.97;11.50;;;8.90;88.60;;;;;;5090139;28;20190;-76
2021/11/15 03:45:40;;;;;;;26.33;12.33;;;8.90;88.70;;;;;;5088884;28;20552;-77
2021/11/15 03:48:08;;;;;;;22.93;12.17;;;8.90;89.20;;;;;;5089249;28;20496;-75
2021/11/15 03:50:35;;;;;;;28.57;12.70;;;8.90;89.30;;;;;;5095272;28;20512;-76
2021/11/15 03:53:03;;;;;;;27.10;12.40;;;8.90;89.20;;;;;;5094034;28;20417;-76
2021/11/15 03:55:29;;;;;;;26.63;12.93;;;8.90;89.20;;;;;;5084765;28;20424;-76
2021/11/15 03:57:55;;;;;;;28.40;12.67;;;8.90;89.30;;;;;;5091487;28;20919;-77
2021/11/15 04:00:24;;;;;;;30.53;12.37;;;8.90;89.50;;;;;;5091844;28;20682;-77
2021/11/15 04:02:53;;;;;;;21.27;9.97;;;8.80;89.60;;;;;;5091247;28;20791;-76
2021/11/15 04:05:27;;;;;;;26.23;10.70;;;8.80;88.60;;;;;;5093353;28;20468;-76
2021/11/15 04:07:54;;;;;;;22.73;9.47;;;8.70;88.00;;;;;;5106406;28;20447;-75
2021/11/15 04:10:30;;;;;;;23.67;10.13;;;8.70;88.40;;;;;;5105175;28;20431;-77
2021/11/15 04:12:59;;;;;;;20.80;10.13;;;8.70;88.40;;;;;;5098062;28;20413;-76
2021/11/15 04:15:25;;;;;;;19.87;8.93;;;8.70;88.40;;;;;;5100774;28;20520;-75
2021/11/15 04:17:51;;;;;;;19.23;9.90;;;8.70;88.10;;;;;;5098845;28;21029;-76
2021/11/15 04:20:19;;;;;;;19.90;8.80;;;8.80;87.80;;;;;;5098489;28;20183;-77
2021/11/15 04:22:45;;;;;;;20.70;9.27;;;8.80;87.70;;;;;;5100448;28;20438;-76
2021/11/15 04:25:11;;;;;;;19.10;9.30;;;8.80;87.40;;;;;;5094118;28;20461;-77
2021/11/15 04:27:37;;;;;;;20.30;8.87;;;8.70;87.30;;;;;;5090266;28;20199;-77
2021/11/15 04:30:05;;;;;;;17.27;7.70;;;8.70;87.40;;;;;;5089506;28;20270;-76
2021/11/15 04:32:31;;;;;;;20.07;8.80;;;8.70;87.60;;;;;;5089420;28;20417;-76
2021/11/15 04:34:57;;;;;;;20.80;9.23;;;8.70;87.70;;;;;;5089762;28;20416;-76
2021/11/15 04:37:23;;;;;;;19.53;9.70;;;8.70;87.60;;;;;;5089308;28;20764;-79
2021/11/15 04:39:49;;;;;;;22.10;8.67;;;8.60;87.70;;;;;;5090898;28;20440;-76
2021/11/15 04:42:15;;;;;;;22.30;9.20;;;8.70;87.80;;;;;;5092470;28;20413;-76
2021/11/15 04:44:47;;;;;;;19.40;10.20;;;8.60;87.70;;;;;;5091825;28;20210;-77
2021/11/15 04:47:12;;;;;;;20.47;9.10;;;8.60;87.70;;;;;;5089326;28;20238;-77
2021/11/15 04:49:38;;;;;;;23.23;9.57;;;8.60;88.00;;;;;;5091603;28;20483;-75
2021/11/15 04:52:06;;;;;;;16.53;8.60;;;8.60;87.80;;;;;;5091823;28;20184;-77
2021/11/15 04:54:32;;;;;;;20.90;9.87;;;8.50;88.10;;;;;;5091530;28;20241;-76
2021/11/15 04:56:58;;;;;;;17.27;8.73;;;8.50;88.00;;;;;;5094436;28;20448;-78
2021/11/15 04:59:24;;;;;;;23.10;9.73;;;8.50;87.80;;;;;;5095310;28;20425;-77
2021/11/15 05:01:50;;;;;;;23.33;10.37;;;8.50;88.00;;;;;;5098316;28;20183;-77
2021/11/15 05:04:15;;;;;;;17.30;8.63;;;8.50;88.00;;;;;;5093247;28;20453;-75
2021/11/15 05:06:41;;;;;;;20.27;8.60;;;8.40;88.00;;;;;;5093851;28;20211;-77
2021/11/15 05:09:07;;;;;;;22.50;9.47;;;8.50;88.00;;;;;;5102510;28;20175;-75
2021/11/15 05:11:33;;;;;;;18.80;9.80;;;8.40;88.10;;;;;;5106803;28;20187;-77
2021/11/15 05:13:59;;;;;;;20.00;9.30;;;8.40;88.10;;;;;;5098228;28;20199;-76
2021/11/15 05:16:25;;;;;;;20.60;9.13;;;8.40;88.10;;;;;;5091837;28;20203;-77
2021/11/15 05:18:50;;;;;;;18.40;9.50;;;8.40;88.00;;;;;;5093364;28;20514;-76
2021/11/15 05:21:17;;;;;;;20.50;10.00;;;8.40;88.30;;;;;;5093125;28;20459;-77
2021/11/15 05:23:44;;;;;;;17.23;9.03;;;8.40;88.30;;;;;;5090389;28;20183;-77
2021/11/15 05:26:10;;;;;;;21.87;9.70;;;8.40;88.70;;;;;;5091392;28;20897;-77
2021/11/15 05:28:35;;;;;;;17.70;8.60;;;8.40;88.60;;;;;;5090662;28;21754;-76
2021/11/15 05:31:01;;;;;;;16.23;8.67;;;8.50;88.70;;;;;;5090948;28;20428;-75
2021/11/15 05:33:27;;;;;;;19.00;8.90;;;8.50;88.30;;;;;;5092955;28;20432;-76
2021/11/15 05:35:53;;;;;;;21.37;9.63;;;8.50;88.30;;;;;;5092363;28;20187;-76
2021/11/15 05:38:18;;;;;;;19.57;9.20;;;8.50;88.10;;;;;;5091663;28;20210;-78
2021/11/15 05:40:45;;;;;;;20.33;9.57;;;8.50;88.30;;;;;;5090669;28;20224;-76
2021/11/15 05:43:10;;;;;;;19.40;9.00;;;8.50;88.30;;;;;;5091378;28;20221;-77
2021/11/15 05:45:36;;;;;;;16.33;9.20;;;8.50;88.10;;;;;;5090946;28;20477;-76
2021/11/15 05:48:02;;;;;;;18.20;10.10;;;8.50;88.10;;;;;;5091646;28;20622;-77
2021/11/15 05:50:28;;;;;;;18.57;9.67;;;8.60;88.00;;;;;;5091662;28;20447;-76
2021/11/15 05:52:55;;;;;;;23.10;10.17;;;8.50;88.00;;;;;;5091447;28;20512;-77
2021/11/15 05:55:23;;;;;;;19.40;9.13;;;8.50;88.30;;;;;;5091899;28;20429;-77
2021/11/15 05:57:50;;;;;;;19.93;9.00;;;8.60;88.40;;;;;;5091942;28;20975;-77
2021/11/15 06:00:19;;;;;;;21.83;10.87;;;8.60;88.60;;;;;;5105553;28;20474;-77
2021/11/15 06:02:45;;;;;;;23.70;10.53;;;8.60;88.60;;;;;;5105788;28;20444;-75
2021/11/15 06:05:11;;;;;;;21.17;9.33;;;8.60;88.60;;;;;;5095095;28;20425;-78
2021/11/15 06:07:37;;;;;;;24.53;10.80;;;8.60;88.90;;;;;;5090496;28;20203;-77
2021/11/15 06:10:06;;;;;;;18.63;9.23;;;8.60;89.00;;;;;;5091192;28;20413;-77
2021/11/15 06:12:33;;;;;;;19.83;10.77;;;8.60;89.20;;;;;;5089572;28;20421;-76
2021/11/15 06:14:58;;;;;;;18.40;9.80;;;8.60;89.00;;;;;;5088677;28;21002;-77
2021/11/15 06:17:24;;;;;;;21.83;9.10;;;8.60;89.20;;;;;;5091104;28;20528;-77
2021/11/15 06:19:50;;;;;;;21.73;9.03;;;8.60;89.00;;;;;;5089635;28;20187;-76
2021/11/15 06:22:16;;;;;;;22.80;10.07;;;8.60;88.90;;;;;;5097974;28;20800;-77
2021/11/15 06:24:47;;;;;;;21.80;9.80;;;8.60;88.90;;;;;;5090785;28;21106;-76
2021/11/15 06:27:14;;;;;;;21.57;10.77;;;8.60;88.90;;;;;;5090467;28;20479;-76
2021/11/15 06:29:40;;;;;;;22.10;10.30;;;8.70;88.70;;;;;;5090015;28;20446;-77
2021/11/15 06:32:08;;;;;;;19.73;9.27;;;8.60;88.40;;;;;;5091370;28;20456;-77
2021/11/15 06:34:34;;;;;;;23.70;9.50;;;8.60;88.70;;;;;;5090280;28;20834;-77
2021/11/15 06:36:59;;;;;;;19.23;9.10;;;8.60;88.70;;;;;;5090806;28;20474;-77
2021/11/15 06:39:26;;;;;;;19.30;10.10;;;8.60;88.90;;;;;;5091311;28;20449;-75
2021/11/15 06:41:54;;;;;;;22.47;9.77;;;8.50;88.90;;;;;;5089976;28;20191;-75
2021/11/15 06:44:21;;;;;;;20.27;9.50;;;8.60;89.00;;;;;;5090612;28;20421;-76
2021/11/15 06:46:47;;;;;;;25.73;10.17;;;8.60;89.00;;;;;;5090165;28;21069;-77
2021/11/15 06:49:14;;;;;;;24.07;9.43;;;8.60;88.90;;;;;;5092033;28;20441;-76
2021/11/15 06:51:41;;;;;;;24.60;10.00;;;8.60;88.90;;;;;;5092409;28;20892;-76
2021/11/15 06:54:07;;;;;;;25.27;10.67;;;8.70;88.60;;;;;;5092115;28;20432;-78
2021/11/15 06:56:33;;;;;;;21.27;10.30;;;8.70;88.60;;;;;;5091905;28;20444;-76
2021/11/15 06:58:59;;;;;;;22.70;9.60;;;8.60;88.40;;;;;;5091683;28;20789;-76
2021/11/15 07:01:25;;;;;;;23.77;10.20;;;8.60;88.60;;;;;;5090038;28;20966;-77
2021/11/15 07:03:51;;;;;;;25.33;10.23;;;8.60;88.60;;;;;;5092492;28;20418;-76
2021/11/15 07:06:17;;;;;;;20.60;10.73;;;8.60;88.70;;;;;;5093468;28;20254;-77
2021/11/15 07:08:42;;;;;;;23.77;9.63;;;8.50;88.70;;;;;;5093059;28;20429;-76
2021/11/15 07:11:08;;;;;;;22.00;10.90;;;8.60;88.90;;;;;;5093799;28;20195;-77
2021/11/15 07:13:34;;;;;;;19.40;10.20;;;8.50;88.90;;;;;;5094224;28;20320;-77
2021/11/15 07:16:00;;;;;;;21.37;9.37;;;8.50;89.20;;;;;;5098429;28;20191;-76
2021/11/15 07:18:27;;;;;;;22.50;10.30;;;8.50;88.90;;;;;;5096204;28;20724;-77
2021/11/15 07:20:54;;;;;;;27.77;10.97;;;8.60;89.00;;;;;;5096380;28;20599;-76
2021/11/15 07:23:20;;;;;;;26.10;10.07;;;8.60;89.00;;;;;;5093748;28;20478;-77
2021/11/15 07:25:46;;;;;;;24.83;10.20;;;8.60;88.40;;;;;;5091753;28;20483;-77
2021/11/15 07:28:12;;;;;;;26.90;10.27;;;8.50;88.60;;;;;;5089512;28;20872;-78
2021/11/15 07:30:38;;;;;;;25.43;10.53;;;8.60;88.60;;;;;;5091191;28;20194;-77
2021/11/15 07:33:05;;;;;;;25.20;10.50;;;8.60;88.60;;;;;;5090234;28;20444;-76
2021/11/15 07:35:31;;;;;;;21.47;9.93;;;8.60;88.70;;;;;;5089686;28;20425;-77
2021/11/15 07:37:57;;;;;;;31.63;10.40;;;8.60;88.60;;;;;;5089424;28;20457;-76
2021/11/15 07:40:23;;;;;;;22.30;10.77;;;8.60;88.70;;;;;;5090306;28;20256;-77
2021/11/15 07:42:49;;;;;;;23.40;10.50;;;8.50;89.00;;;;;;5090756;28;20455;-77
2021/11/15 07:45:15;;;;;;;23.33;11.30;;;8.50;89.20;;;;;;5094457;28;20939;-76
2021/11/15 07:47:41;;;;;;;22.57;10.73;;;8.50;89.50;;;;;;5094862;28;20967;-77
2021/11/15 07:50:08;;;;;;;23.90;11.50;;;8.50;89.50;;;;;;5092144;28;20552;-77
2021/11/15 07:52:36;;;;;;;25.60;10.33;;;8.60;89.00;;;;;;5094672;28;21006;-77
2021/11/15 07:55:04;;;;;;;27.60;10.97;;;8.60;89.20;;;;;;5093738;28;20443;-76
2021/11/15 07:57:30;;;;;;;20.27;9.93;;;8.60;89.00;;;;;;5091122;28;20483;-77
2021/11/15 07:59:56;;;;;;;24.77;10.30;;;8.60;89.00;;;;;;5092442;28;20790;-77
2021/11/15 08:02:22;;;;;;;20.30;10.50;;;8.70;89.00;;;;;;5094001;28;20203;-76
2021/11/15 08:04:48;;;;;;;22.80;10.60;;;8.70;88.70;;;;;;5091290;28;20461;-77
2021/11/15 08:07:15;;;;;;;23.70;12.00;;;8.70;88.70;;;;;;5090285;28;21339;-76
2021/11/15 08:09:41;;;;;;;21.77;11.40;;;8.70;88.70;;;;;;5090290;28;20424;-77
2021/11/15 08:12:09;;;;;;;26.50;12.10;;;8.60;88.90;;;;;;5091066;28;20435;-76
2021/11/15 08:14:39;;;;;;;29.10;11.97;;;8.60;88.90;;;;;;5085067;28;20906;-77
2021/11/15 08:17:05;;;;;;;24.83;10.90;;;8.60;89.00;;;;;;5094220;28;20437;-78
2021/11/15 08:19:31;;;;;;;22.43;10.43;;;8.60;89.30;;;;;;5094522;28;20773;-76
2021/11/15 08:22:00;;;;;;;25.57;11.30;;;8.60;89.50;;;;;;5094281;28;20416;-76
2021/11/15 08:24:29;;;;;;;20.13;10.90;;;8.60;89.70;;;;;;5092160;28;20468;-77
2021/11/15 08:26:58;;;;;;;25.97;10.73;;;8.60;90.00;;;;;;5092811;28;20841;-77
2021/11/15 08:29:25;;;;;;;27.03;12.10;;;8.70;89.30;;;;;;5093704;28;20735;-77
2021/11/15 08:38:47;;;;;;;23.90;10.97;;;8.70;89.30;;;;;;5091695;28;20450;-78
2021/11/15 08:41:17;;;;;;;28.27;11.67;;;8.80;89.50;;;;;;5093927;28;20443;-76
2021/11/15 08:43:43;;;;;;;27.57;11.27;;;8.80;89.60;;;;;;5087260;28;20436;-77
2021/11/15 08:46:15;;;;;;;22.73;10.90;;;8.80;89.50;;;;;;5093564;28;20552;-77
2021/11/15 08:48:42;;;;;;;25.27;11.20;;;8.80;89.50;;;;;;5096071;28;20417;-77
2021/11/15 08:51:10;;;;;;;22.47;11.20;;;8.80;89.50;;;;;;5095868;28;20912;-77
2021/11/15 08:53:37;;;;;;;31.67;12.30;;;8.80;89.70;;;;;;5097824;28;20524;-77
2021/11/15 08:56:04;;;;;;;29.50;11.00;;;8.80;89.50;;;;;;5105899;28;20489;-76
2021/11/15 08:58:30;;;;;;;26.07;11.33;;;8.80;89.30;;;;;;5090928;28;20424;-76
2021/11/15 09:00:56;;;;;;;25.00;11.60;;;8.80;89.20;;;;;;5101128;28;20504;-77
2021/11/15 09:03:22;;;;;;;26.97;10.70;;;8.80;89.30;;;;;;5112141;28;20191;-77
2021/11/15 09:05:50;;;;;;;26.17;10.87;;;8.80;89.50;;;;;;5105592;28;20480;-76
2021/11/15 09:08:17;;;;;;;26.27;10.90;;;8.90;89.20;;;;;;5097518;28;20449;-77
2021/11/15 09:10:43;;;;;;;24.13;10.73;;;8.90;89.00;;;;;;5093636;28;20540;-77
2021/11/15 09:13:11;;;;;;;22.87;10.37;;;8.90;88.70;;;;;;5093442;28;20425;-76
2021/11/15 09:15:36;;;;;;;23.23;10.90;;;8.90;88.30;;;;;;5091382;28;20425;-77
2021/11/15 09:18:02;;;;;;;24.27;10.57;;;8.90;88.40;;;;;;5092906;28;20514;-77
2021/11/15 09:20:29;;;;;;;22.40;10.30;;;8.90;88.40;;;;;;5091584;28;20275;-77
2021/11/15 09:22:55;;;;;;;23.57;11.90;;;8.90;88.10;;;;;;5092596;28;20428;-76
2021/11/15 09:25:20;;;;;;;25.27;11.97;;;8.90;88.00;;;;;;5090369;28;20533;-76
2021/11/15 09:27:47;;;;;;;23.47;10.97;;;8.80;87.80;;;;;;5092464;28;20443;-78
2021/11/15 09:30:13;;;;;;;21.77;12.03;;;8.90;87.80;;;;;;5093246;28;20454;-76
2021/11/15 09:32:41;;;;;;;21.80;10.03;;;8.90;87.30;;;;;;5093099;28;20417;-76
2021/11/15 09:35:07;;;;;;;25.30;11.73;;;8.90;87.40;;;;;;5090710;28;20456;-75
2021/11/15 09:37:33;;;;;;;24.93;11.70;;;9.00;87.30;;;;;;5092108;28;20441;-77
2021/11/15 09:39:59;;;;;;;24.80;11.90;;;9.00;87.00;;;;;;5093071;28;20522;-77
2021/11/15 09:42:25;;;;;;;18.37;10.40;;;9.00;86.90;;;;;;5092415;28;20425;-77
2021/11/15 09:44:52;;;;;;;21.27;10.17;;;8.90;87.30;;;;;;5091567;28;20425;-77
2021/11/15 09:47:18;;;;;;;22.77;9.70;;;8.90;87.40;;;;;;5092121;28;20526;-77
2021/11/15 09:49:44;;;;;;;24.07;10.93;;;8.90;87.10;;;;;;5093778;28;20421;-77
2021/11/15 09:52:12;;;;;;;20.63;10.33;;;8.90;86.80;;;;;;5093171;28;20833;-76
2021/11/15 09:54:38;;;;;;;19.77;10.33;;;8.90;86.80;;;;;;5093079;28;20425;-76
2021/11/15 09:57:04;;;;;;;21.37;10.87;;;8.90;86.80;;;;;;5093423;28;20444;-77
2021/11/15 09:59:31;;;;;;;20.37;10.37;;;8.90;86.90;;;;;;5094411;28;20183;-77
2021/11/15 10:01:58;;;;;;;24.57;11.10;;;8.90;86.80;;;;;;5091548;28;20425;-77
2021/11/15 10:04:25;;;;;;;22.13;9.97;;;8.90;86.60;;;;;;5092331;28;20433;-77
2021/11/15 10:06:56;;;;;;;23.67;10.47;;;8.90;86.90;;;;;;5092465;28;20469;-77
2021/11/15 10:09:30;;;;;;;26.40;10.00;;;8.90;86.80;;;;;;5091976;28;20433;-77
2021/11/15 10:11:58;;;;;;;22.90;10.87;;;8.90;86.90;;;;;;5093676;28;20421;-76
2021/11/15 10:14:24;;;;;;;21.03;10.73;;;9.00;86.80;;;;;;5092530;28;20779;-78
2021/11/15 10:16:55;;;;;;;25.93;10.83;;;8.90;87.00;;;;;;5093887;28;20445;-77
2021/11/15 10:19:22;;;;;;;26.40;11.33;;;8.90;86.90;;;;;;5093798;28;20856;-76
2021/11/15 10:21:54;;;;;;;27.10;12.30;;;8.90;86.80;;;;;;5094001;28;20456;-76
2021/11/15 10:24:32;;;;;;;25.30;12.13;;;8.90;87.00;;;;;;5091502;28;20448;-77
2021/11/15 10:27:07;;;;;;;29.20;10.67;;;8.90;86.90;;;;;;5093252;28;20476;-77
2021/11/15 10:29:38;;;;;;;23.17;11.10;;;8.90;87.00;;;;;;5085515;28;20429;-78
2021/11/15 10:32:12;;;;;;;26.43;12.73;;;8.90;86.60;;;;;;5096202;28;20421;-77
2021/11/15 10:34:53;;;;;;;18.00;9.83;;;8.90;86.90;;;;;;5093154;28;20523;-78
2021/11/15 10:37:28;;;;;;;21.20;10.50;;;8.90;86.90;;;;;;5094073;28;20544;-76
2021/11/15 10:40:10;;;;;;;22.80;10.40;;;9.00;87.00;;;;;;5094264;28;20571;-75
2021/11/15 10:42:36;;;;;;;24.23;11.13;;;9.00;87.00;;;;;;5090393;28;20513;-75
2021/11/15 10:45:10;;;;;;;26.77;10.77;;;9.00;87.00;;;;;;5099334;28;20432;-77
2021/11/15 10:47:54;;;;;;;20.57;10.33;;;9.00;86.50;;;;;;5086968;28;20469;-78
2021/11/15 10:50:24;;;;;;;24.77;11.30;;;9.00;86.60;;;;;;5078153;28;20405;-77
2021/11/15 10:53:10;;;;;;;26.10;12.63;;;9.10;86.50;;;;;;5091405;28;20424;-76
2021/11/15 10:55:39;;;;;;;20.53;11.20;;;9.10;86.30;;;;;;5083339;28;20436;-76
2021/11/15 10:58:16;;;;;;;25.87;12.00;;;9.10;86.00;;;;;;5089232;28;20506;-78
2021/11/15 11:00:51;;;;;;;21.97;10.43;;;9.00;86.80;;;;;;5091319;28;20427;-76
2021/11/15 11:03:20;;;;;;;26.57;11.60;;;9.00;86.90;;;;;;5090650;28;20428;-77
2021/11/15 11:05:49;;;;;;;23.50;10.97;;;8.90;86.60;;;;;;5090476;28;20460;-77
2021/11/15 11:08:17;;;;;;;24.23;11.83;;;8.90;86.80;;;;;;5090731;28;20467;-77
2021/11/15 11:11:13;;;;;;;22.70;11.47;;;8.90;87.00;;;;;;5089565;28;20506;-76
2021/11/15 11:13:41;;;;;;;25.33;11.77;;;9.00;87.10;;;;;;4992156;28;20618;-77
2021/11/15 11:16:07;;;;;;;29.63;13.43;;;9.00;87.10;;;;;;5008196;28;20440;-77
2021/11/15 11:18:44;;;;;;;28.50;12.33;;;9.00;87.30;;;;;;4991911;28;20970;-76
2021/11/15 11:24:18;;;;;;;28.73;13.37;;;9.00;87.70;;;;;;5010052;28;20451;-78
2021/11/15 11:26:50;;;;;;;25.63;12.90;;;9.10;87.30;;;;;;4997682;28;21061;-77
2021/11/15 11:29:22;;;;;;;31.23;14.57;;;9.00;87.30;;;;;;5010160;28;20503;-76
2021/11/15 11:31:52;;;;;;;35.30;15.77;;;9.10;87.30;;;;;;4993282;28;20462;-77
2021/11/15 11:34:21;;;;;;;33.87;15.80;;;9.10;87.70;;;;;;5008361;28;20507;-77
2021/11/15 11:36:47;;;;;;;27.30;12.53;;;9.20;87.30;;;;;;4991925;28;20460;-77
2021/11/15 11:39:14;;;;;;;33.17;14.77;;;9.20;87.00;;;;;;5008434;28;20424;-77
2021/11/15 11:41:42;;;;;;;33.20;14.47;;;9.20;86.90;;;;;;4991737;28;20516;-77
2021/11/15 11:44:11;;;;;;;28.13;14.33;;;9.20;86.50;;;;;;5005925;28;20495;-76
2021/11/15 11:46:39;;;;;;;31.90;13.70;;;9.30;86.20;;;;;;4991571;28;20476;-77
2021/11/15 11:49:08;;;;;;;34.33;15.03;;;9.20;86.20;;;;;;5013180;28;20429;-77
2021/11/15 11:51:35;;;;;;;33.43;14.77;;;9.20;86.30;;;;;;5095273;28;20995;-77
2021/11/15 11:54:08;;;;;;;35.57;14.77;;;9.20;86.60;;;;;;5095106;28;20428;-77
2021/11/15 11:56:35;;;;;;;24.77;13.03;;;9.20;86.20;;;;;;5089009;28;20433;-77
2021/11/15 11:59:16;;;;;;;31.60;13.17;;;9.30;86.20;;;;;;5105838;28;20435;-77
2021/11/15 12:01:56;;;;;;;29.37;13.47;;;9.30;85.90;;;;;;5101637;28;20430;-77
2021/11/15 12:04:22;;;;;;;29.80;13.13;;;9.30;86.00;;;;;;5097016;28;20957;-76
2021/11/15 12:06:50;;;;;;;28.13;13.37;;;9.30;86.30;;;;;;5096628;28;20529;-77
2021/11/15 12:09:22;;;;;;;26.77;13.60;;;9.30;86.30;;;;;;5105238;28;20425;-77
2021/11/15 12:12:00;;;;;;;29.70;13.80;;;9.30;85.90;;;;;;5095412;28;20431;-77
2021/11/15 12:14:44;;;;;;;31.13;14.50;;;9.20;85.90;;;;;;5093509;28;20427;-77
2021/11/15 12:17:15;;;;;;;35.17;14.70;;;9.10;86.50;;;;;;5094214;28;20448;-77
2021/11/15 12:20:05;;;;;;;27.60;13.27;;;9.10;86.50;;;;;;5097224;28;20420;-77
2021/11/15 12:22:42;;;;;;;28.60;13.07;;;9.20;86.50;;;;;;5087668;28;20436;-78
2021/11/15 12:25:13;;;;;;;29.17;13.20;;;9.20;86.50;;;;;;5094824;28;20520;-77
2021/11/15 12:28:00;;;;;;;26.90;13.10;;;9.20;86.30;;;;;;5097023;28;20464;-77
2021/11/15 12:30:33;;;;;;;29.17;13.83;;;9.20;86.30;;;;;;5095183;28;20428;-78
2021/11/15 12:33:18;;;;;;;28.33;13.93;;;9.20;86.60;;;;;;5097694;28;20930;-77
2021/11/15 12:35:54;;;;;;;28.80;14.07;;;9.10;86.80;;;;;;5097303;28;20471;-76
2021/11/15 12:38:40;;;;;;;33.80;15.23;;;9.20;87.00;;;;;;5097615;28;20524;-76
2021/11/15 12:41:18;;;;;;;31.33;14.10;;;9.20;87.00;;;;;;5096532;28;20440;-78
2021/11/15 12:44:05;;;;;;;27.93;13.83;;;9.30;86.60;;;;;;5095876;28;20432;-78
2021/11/15 12:46:41;;;;;;;29.03;13.83;;;9.30;86.00;;;;;;5091222;28;20523;-77
2021/11/15 12:49:36;;;;;;;31.97;14.47;;;9.30;86.20;;;;;;5107092;28;20452;-78
2021/11/15 12:54:44;;;;;;;26.80;13.30;;;9.30;86.20;;;;;;5095388;28;20412;-77
2021/11/15 12:57:17;;;;;;;38.00;14.90;;;9.30;86.30;;;;;;5110250;28;20474;-76